sensor_id;sensor_type;location;lat;lon;timestamp;P1;durP1;ratioP1;P2;durP2;ratioP2
10761;SDS011;5433;50.862;4.320;2023-03-31T00:01:23;11.60;;;3.22;;
10761;SDS011;5433;50.862;4.320;2023-03-31T00:03:49;10.68;;;2.88;;
10761;SDS011;5433;50.862;4.320;2023-03-31T00:06:15;11.73;;;2.80;;
10761;SDS011;5433;50.862;4.320;2023-03-31T00:08:44;12.25;;;3.08;;
10761;SDS011;5433;50.862;4.320;2023-03-31T00:11:11;12.30;;;2.60;;
10761;SDS011;5433;50.862;4.320;2023-03-31T00:13:37;11.00;;;2.90;;
10761;SDS011;5433;50.862;4.320;2023-03-31T00:16:05;11.90;;;3.30;;
10761;SDS011;5433;50.862;4.320;2023-03-31T00:18:32;11.20;;;2.63;;
10761;SDS011;5433;50.862;4.320;2023-03-31T00:20:59;11.13;;;2.78;;
10761;SDS011;5433;50.862;4.320;2023-03-31T00:23:31;14.32;;;2.65;;
10761;SDS011;5433;50.862;4.320;2023-03-31T00:25:57;11.20;;;2.65;;
10761;SDS011;5433;50.862;4.320;2023-03-31T00:28:23;14.52;;;2.75;;
10761;SDS011;5433;50.862;4.320;2023-03-31T00:30:49;7.47;;;2.10;;
10761;SDS011;5433;50.862;4.320;2023-03-31T00:33:15;9.35;;;2.42;;
10761;SDS011;5433;50.862;4.320;2023-03-31T00:35:42;10.13;;;2.35;;
10761;SDS011;5433;50.862;4.320;2023-03-31T00:38:09;6.15;;;1.88;;
10761;SDS011;5433;50.862;4.320;2023-03-31T00:40:42;9.82;;;2.20;;
10761;SDS011;5433;50.862;4.320;2023-03-31T00:43:10;11.20;;;2.35;;
10761;SDS011;5433;50.862;4.320;2023-03-31T00:45:46;9.30;;;2.20;;
10761;SDS011;5433;50.862;4.320;2023-03-31T00:48:15;14.80;;;2.35;;
10761;SDS011;5433;50.862;4.320;2023-03-31T00:50:46;11.48;;;2.50;;
10761;SDS011;5433;50.862;4.320;2023-03-31T00:53:15;8.10;;;2.08;;
10761;SDS011;5433;50.862;4.320;2023-03-31T00:55:43;9.18;;;2.05;;
10761;SDS011;5433;50.862;4.320;2023-03-31T00:58:10;11.02;;;2.50;;
10761;SDS011;5433;50.862;4.320;2023-03-31T01:00:44;11.80;;;2.20;;
10761;SDS011;5433;50.862;4.320;2023-03-31T01:03:11;8.98;;;2.40;;
10761;SDS011;5433;50.862;4.320;2023-03-31T01:05:39;11.85;;;2.97;;
10761;SDS011;5433;50.862;4.320;2023-03-31T01:08:07;11.38;;;2.95;;
10761;SDS011;5433;50.862;4.320;2023-03-31T01:10:35;11.45;;;2.65;;
10761;SDS011;5433;50.862;4.320;2023-03-31T01:13:05;13.63;;;3.28;;
10761;SDS011;5433;50.862;4.320;2023-03-31T01:15:31;13.35;;;3.08;;
10761;SDS011;5433;50.862;4.320;2023-03-31T01:17:57;10.43;;;2.72;;
10761;SDS011;5433;50.862;4.320;2023-03-31T01:26:19;11.07;;;2.38;;
10761;SDS011;5433;50.862;4.320;2023-03-31T01:28:49;8.40;;;2.30;;
10761;SDS011;5433;50.862;4.320;2023-03-31T01:36:40;10.23;;;2.28;;
10761;SDS011;5433;50.862;4.320;2023-03-31T01:44:14;11.52;;;2.25;;
10761;SDS011;5433;50.862;4.320;2023-03-31T01:47:05;9.23;;;2.40;;
10761;SDS011;5433;50.862;4.320;2023-03-31T01:49:31;9.27;;;2.33;;
10761;SDS011;5433;50.862;4.320;2023-03-31T01:54:36;8.48;;;1.92;;
10761;SDS011;5433;50.862;4.320;2023-03-31T01:59:38;6.55;;;1.77;;
10761;SDS011;5433;50.862;4.320;2023-03-31T02:04:38;7.28;;;1.55;;
10761;SDS011;5433;50.862;4.320;2023-03-31T02:07:26;7.38;;;1.80;;
10761;SDS011;5433;50.862;4.320;2023-03-31T02:09:57;8.85;;;1.88;;
10761;SDS011;5433;50.862;4.320;2023-03-31T02:12:25;5.10;;;1.30;;
10761;SDS011;5433;50.862;4.320;2023-03-31T02:14:51;6.05;;;1.60;;
10761;SDS011;5433;50.862;4.320;2023-03-31T02:17:20;7.85;;;1.80;;
10761;SDS011;5433;50.862;4.320;2023-03-31T02:19:48;6.65;;;1.33;;
10761;SDS011;5433;50.862;4.320;2023-03-31T02:22:15;8.00;;;1.83;;
10761;SDS011;5433;50.862;4.320;2023-03-31T02:24:46;7.30;;;1.77;;
10761;SDS011;5433;50.862;4.320;2023-03-31T02:27:23;9.85;;;1.95;;
10761;SDS011;5433;50.862;4.320;2023-03-31T02:29:50;8.85;;;1.73;;
10761;SDS011;5433;50.862;4.320;2023-03-31T02:32:35;6.32;;;1.48;;
10761;SDS011;5433;50.862;4.320;2023-03-31T02:35:01;6.70;;;1.60;;
10761;SDS011;5433;50.862;4.320;2023-03-31T02:37:28;5.50;;;1.65;;
10761;SDS011;5433;50.862;4.320;2023-03-31T02:39:55;7.35;;;1.55;;
10761;SDS011;5433;50.862;4.320;2023-03-31T02:42:21;6.63;;;1.85;;
10761;SDS011;5433;50.862;4.320;2023-03-31T02:44:48;6.00;;;1.85;;
10761;SDS011;5433;50.862;4.320;2023-03-31T02:47:14;8.02;;;1.67;;
10761;SDS011;5433;50.862;4.320;2023-03-31T02:49:43;6.45;;;1.60;;
10761;SDS011;5433;50.862;4.320;2023-03-31T02:52:14;8.10;;;2.08;;
10761;SDS011;5433;50.862;4.320;2023-03-31T02:59:47;8.50;;;1.90;;
10761;SDS011;5433;50.862;4.320;2023-03-31T03:02:20;4.93;;;1.50;;
10761;SDS011;5433;50.862;4.320;2023-03-31T03:07:22;6.18;;;1.75;;
10761;SDS011;5433;50.862;4.320;2023-03-31T03:09:58;6.88;;;1.73;;
10761;SDS011;5433;50.862;4.320;2023-03-31T03:12:48;7.13;;;1.95;;
10761;SDS011;5433;50.862;4.320;2023-03-31T03:15:17;10.50;;;1.77;;
10761;SDS011;5433;50.862;4.320;2023-03-31T03:17:46;7.40;;;1.98;;
10761;SDS011;5433;50.862;4.320;2023-03-31T03:20:13;7.13;;;1.70;;
10761;SDS011;5433;50.862;4.320;2023-03-31T03:22:40;6.93;;;1.90;;
10761;SDS011;5433;50.862;4.320;2023-03-31T03:25:07;8.50;;;1.98;;
10761;SDS011;5433;50.862;4.320;2023-03-31T03:27:33;8.10;;;1.70;;
10761;SDS011;5433;50.862;4.320;2023-03-31T03:30:00;6.97;;;1.60;;
10761;SDS011;5433;50.862;4.320;2023-03-31T03:32:27;12.45;;;2.15;;
10761;SDS011;5433;50.862;4.320;2023-03-31T03:34:53;9.48;;;1.90;;
10761;SDS011;5433;50.862;4.320;2023-03-31T03:37:19;9.50;;;1.73;;
10761;SDS011;5433;50.862;4.320;2023-03-31T03:39:46;5.38;;;1.33;;
10761;SDS011;5433;50.862;4.320;2023-03-31T03:42:12;4.82;;;1.08;;
10761;SDS011;5433;50.862;4.320;2023-03-31T03:44:38;2.67;;;1.00;;
10761;SDS011;5433;50.862;4.320;2023-03-31T03:47:04;4.55;;;0.85;;
10761;SDS011;5433;50.862;4.320;2023-03-31T03:49:30;1.67;;;0.93;;
10761;SDS011;5433;50.862;4.320;2023-03-31T03:51:56;3.20;;;1.10;;
10761;SDS011;5433;50.862;4.320;2023-03-31T03:54:22;2.60;;;0.80;;
10761;SDS011;5433;50.862;4.320;2023-03-31T03:56:48;2.88;;;1.00;;
10761;SDS011;5433;50.862;4.320;2023-03-31T03:59:14;3.88;;;1.00;;
10761;SDS011;5433;50.862;4.320;2023-03-31T04:01:40;3.72;;;0.80;;
10761;SDS011;5433;50.862;4.320;2023-03-31T04:04:06;1.95;;;0.70;;
10761;SDS011;5433;50.862;4.320;2023-03-31T04:06:32;3.85;;;0.70;;
10761;SDS011;5433;50.862;4.320;2023-03-31T04:08:58;1.58;;;0.60;;
10761;SDS011;5433;50.862;4.320;2023-03-31T04:11:24;0.93;;;0.60;;
10761;SDS011;5433;50.862;4.320;2023-03-31T04:13:52;1.95;;;0.55;;
10761;SDS011;5433;50.862;4.320;2023-03-31T04:16:18;1.17;;;0.70;;
10761;SDS011;5433;50.862;4.320;2023-03-31T04:18:44;1.45;;;0.60;;
10761;SDS011;5433;50.862;4.320;2023-03-31T04:21:11;1.23;;;0.80;;
10761;SDS011;5433;50.862;4.320;2023-03-31T04:23:46;1.83;;;0.90;;
10761;SDS011;5433;50.862;4.320;2023-03-31T04:26:13;2.20;;;0.95;;
10761;SDS011;5433;50.862;4.320;2023-03-31T04:28:40;2.67;;;1.10;;
10761;SDS011;5433;50.862;4.320;2023-03-31T04:31:11;2.47;;;1.45;;
10761;SDS011;5433;50.862;4.320;2023-03-31T04:33:49;4.70;;;1.52;;
10761;SDS011;5433;50.862;4.320;2023-03-31T04:36:15;4.60;;;1.30;;
10761;SDS011;5433;50.862;4.320;2023-03-31T04:38:42;5.88;;;1.67;;
10761;SDS011;5433;50.862;4.320;2023-03-31T04:41:11;5.95;;;1.70;;
10761;SDS011;5433;50.862;4.320;2023-03-31T04:43:37;9.02;;;2.03;;
10761;SDS011;5433;50.862;4.320;2023-03-31T04:46:03;6.88;;;2.00;;
10761;SDS011;5433;50.862;4.320;2023-03-31T04:48:29;7.93;;;2.10;;
10761;SDS011;5433;50.862;4.320;2023-03-31T04:50:55;7.82;;;2.13;;
10761;SDS011;5433;50.862;4.320;2023-03-31T04:53:21;8.82;;;2.22;;
10761;SDS011;5433;50.862;4.320;2023-03-31T04:55:48;8.73;;;2.28;;
10761;SDS011;5433;50.862;4.320;2023-03-31T04:58:14;10.40;;;2.13;;
10761;SDS011;5433;50.862;4.320;2023-03-31T05:00:41;10.40;;;2.45;;
10761;SDS011;5433;50.862;4.320;2023-03-31T05:03:07;9.18;;;2.60;;
10761;SDS011;5433;50.862;4.320;2023-03-31T05:05:33;10.30;;;2.53;;
10761;SDS011;5433;50.862;4.320;2023-03-31T05:07:59;10.38;;;2.45;;
10761;SDS011;5433;50.862;4.320;2023-03-31T05:10:25;11.40;;;2.65;;
10761;SDS011;5433;50.862;4.320;2023-03-31T05:12:51;11.13;;;2.85;;
10761;SDS011;5433;50.862;4.320;2023-03-31T05:15:17;9.55;;;2.90;;
10761;SDS011;5433;50.862;4.320;2023-03-31T05:17:44;8.65;;;2.90;;
10761;SDS011;5433;50.862;4.320;2023-03-31T05:20:10;13.32;;;3.60;;
10761;SDS011;5433;50.862;4.320;2023-03-31T05:22:37;12.48;;;3.45;;
10761;SDS011;5433;50.862;4.320;2023-03-31T05:25:04;11.85;;;3.65;;
10761;SDS011;5433;50.862;4.320;2023-03-31T05:27:31;11.98;;;3.13;;
10761;SDS011;5433;50.862;4.320;2023-03-31T05:29:57;14.52;;;3.25;;
10761;SDS011;5433;50.862;4.320;2023-03-31T05:32:24;7.50;;;2.42;;
10761;SDS011;5433;50.862;4.320;2023-03-31T05:34:50;9.30;;;2.70;;
10761;SDS011;5433;50.862;4.320;2023-03-31T05:37:17;12.68;;;2.80;;
10761;SDS011;5433;50.862;4.320;2023-03-31T05:39:43;8.40;;;2.47;;
10761;SDS011;5433;50.862;4.320;2023-03-31T05:42:09;10.60;;;2.47;;
10761;SDS011;5433;50.862;4.320;2023-03-31T05:44:35;11.20;;;3.03;;
10761;SDS011;5433;50.862;4.320;2023-03-31T05:47:01;12.10;;;2.58;;
10761;SDS011;5433;50.862;4.320;2023-03-31T05:49:30;14.02;;;3.10;;
10761;SDS011;5433;50.862;4.320;2023-03-31T05:51:56;12.05;;;2.78;;
10761;SDS011;5433;50.862;4.320;2023-03-31T05:54:22;8.80;;;2.70;;
10761;SDS011;5433;50.862;4.320;2023-03-31T05:56:48;13.63;;;2.92;;
10761;SDS011;5433;50.862;4.320;2023-03-31T05:59:15;10.57;;;2.55;;
10761;SDS011;5433;50.862;4.320;2023-03-31T06:01:41;14.32;;;3.08;;
10761;SDS011;5433;50.862;4.320;2023-03-31T06:04:07;15.45;;;3.10;;
10761;SDS011;5433;50.862;4.320;2023-03-31T06:06:33;14.32;;;3.17;;
10761;SDS011;5433;50.862;4.320;2023-03-31T06:09:02;11.02;;;3.03;;
10761;SDS011;5433;50.862;4.320;2023-03-31T06:11:28;12.13;;;2.92;;
10761;SDS011;5433;50.862;4.320;2023-03-31T06:13:54;8.75;;;2.95;;
10761;SDS011;5433;50.862;4.320;2023-03-31T06:16:20;13.55;;;2.85;;
10761;SDS011;5433;50.862;4.320;2023-03-31T06:18:46;10.50;;;2.90;;
10761;SDS011;5433;50.862;4.320;2023-03-31T06:21:15;10.70;;;3.15;;
10761;SDS011;5433;50.862;4.320;2023-03-31T06:23:42;11.00;;;3.00;;
10761;SDS011;5433;50.862;4.320;2023-03-31T06:26:12;12.40;;;2.97;;
10761;SDS011;5433;50.862;4.320;2023-03-31T06:28:39;12.18;;;3.50;;
10761;SDS011;5433;50.862;4.320;2023-03-31T06:31:07;11.43;;;3.03;;
10761;SDS011;5433;50.862;4.320;2023-03-31T06:33:35;13.57;;;2.85;;
10761;SDS011;5433;50.862;4.320;2023-03-31T06:36:02;12.90;;;3.17;;
10761;SDS011;5433;50.862;4.320;2023-03-31T06:38:29;11.13;;;3.35;;
10761;SDS011;5433;50.862;4.320;2023-03-31T06:40:55;10.18;;;3.72;;
10761;SDS011;5433;50.862;4.320;2023-03-31T06:43:21;11.88;;;3.35;;
10761;SDS011;5433;50.862;4.320;2023-03-31T06:45:47;10.98;;;3.17;;
10761;SDS011;5433;50.862;4.320;2023-03-31T06:48:13;11.95;;;3.15;;
10761;SDS011;5433;50.862;4.320;2023-03-31T06:50:40;12.38;;;3.20;;
10761;SDS011;5433;50.862;4.320;2023-03-31T06:53:07;9.18;;;3.35;;
10761;SDS011;5433;50.862;4.320;2023-03-31T06:55:33;13.48;;;3.15;;
10761;SDS011;5433;50.862;4.320;2023-03-31T06:57:59;11.85;;;3.40;;
10761;SDS011;5433;50.862;4.320;2023-03-31T07:00:25;14.45;;;3.67;;
10761;SDS011;5433;50.862;4.320;2023-03-31T07:02:52;16.40;;;3.58;;
10761;SDS011;5433;50.862;4.320;2023-03-31T07:05:18;13.07;;;3.38;;
10761;SDS011;5433;50.862;4.320;2023-03-31T07:07:50;12.82;;;3.50;;
10761;SDS011;5433;50.862;4.320;2023-03-31T07:10:16;14.70;;;3.38;;
10761;SDS011;5433;50.862;4.320;2023-03-31T07:12:42;10.70;;;3.30;;
10761;SDS011;5433;50.862;4.320;2023-03-31T07:15:08;16.75;;;3.70;;
10761;SDS011;5433;50.862;4.320;2023-03-31T07:17:34;13.07;;;3.20;;
10761;SDS011;5433;50.862;4.320;2023-03-31T07:20:01;12.98;;;3.42;;
10761;SDS011;5433;50.862;4.320;2023-03-31T07:22:28;10.30;;;3.05;;
10761;SDS011;5433;50.862;4.320;2023-03-31T07:24:54;11.63;;;3.53;;
10761;SDS011;5433;50.862;4.320;2023-03-31T07:27:21;13.10;;;3.22;;
10761;SDS011;5433;50.862;4.320;2023-03-31T07:29:46;16.23;;;3.53;;
10761;SDS011;5433;50.862;4.320;2023-03-31T07:32:13;15.43;;;3.63;;
10761;SDS011;5433;50.862;4.320;2023-03-31T07:34:39;13.10;;;3.25;;
10761;SDS011;5433;50.862;4.320;2023-03-31T07:37:06;16.23;;;3.38;;
10761;SDS011;5433;50.862;4.320;2023-03-31T07:39:32;15.60;;;3.25;;
10761;SDS011;5433;50.862;4.320;2023-03-31T07:41:58;12.38;;;3.00;;
10761;SDS011;5433;50.862;4.320;2023-03-31T07:44:25;13.10;;;3.15;;
10761;SDS011;5433;50.862;4.320;2023-03-31T07:46:51;14.80;;;3.17;;
10761;SDS011;5433;50.862;4.320;2023-03-31T07:49:17;12.85;;;3.50;;
10761;SDS011;5433;50.862;4.320;2023-03-31T07:51:43;17.02;;;3.22;;
10761;SDS011;5433;50.862;4.320;2023-03-31T07:54:09;13.63;;;3.30;;
10761;SDS011;5433;50.862;4.320;2023-03-31T07:56:35;14.20;;;3.10;;
10761;SDS011;5433;50.862;4.320;2023-03-31T07:59:01;15.73;;;3.25;;
10761;SDS011;5433;50.862;4.320;2023-03-31T08:01:27;14.50;;;3.13;;
10761;SDS011;5433;50.862;4.320;2023-03-31T08:03:53;12.55;;;2.72;;
10761;SDS011;5433;50.862;4.320;2023-03-31T08:06:22;12.73;;;3.17;;
10761;SDS011;5433;50.862;4.320;2023-03-31T08:08:48;14.20;;;3.30;;
10761;SDS011;5433;50.862;4.320;2023-03-31T08:11:15;12.85;;;2.92;;
10761;SDS011;5433;50.862;4.320;2023-03-31T08:13:41;15.75;;;3.38;;
10761;SDS011;5433;50.862;4.320;2023-03-31T08:16:07;14.43;;;2.88;;
10761;SDS011;5433;50.862;4.320;2023-03-31T08:18:33;16.40;;;3.20;;
10761;SDS011;5433;50.862;4.320;2023-03-31T08:20:59;14.45;;;3.30;;
10761;SDS011;5433;50.862;4.320;2023-03-31T08:23:25;15.48;;;3.50;;
10761;SDS011;5433;50.862;4.320;2023-03-31T08:25:51;11.45;;;2.78;;
10761;SDS011;5433;50.862;4.320;2023-03-31T08:28:17;15.07;;;3.28;;
10761;SDS011;5433;50.862;4.320;2023-03-31T08:30:43;12.13;;;2.97;;
10761;SDS011;5433;50.862;4.320;2023-03-31T08:33:10;11.18;;;3.10;;
10761;SDS011;5433;50.862;4.320;2023-03-31T08:35:37;12.50;;;2.97;;
10761;SDS011;5433;50.862;4.320;2023-03-31T08:38:03;11.07;;;2.53;;
10761;SDS011;5433;50.862;4.320;2023-03-31T08:40:30;14.10;;;3.35;;
10761;SDS011;5433;50.862;4.320;2023-03-31T08:42:59;13.35;;;2.83;;
10761;SDS011;5433;50.862;4.320;2023-03-31T08:45:31;14.45;;;2.70;;
10761;SDS011;5433;50.862;4.320;2023-03-31T08:48:10;13.75;;;3.20;;
10761;SDS011;5433;50.862;4.320;2023-03-31T08:50:42;12.88;;;3.13;;
10761;SDS011;5433;50.862;4.320;2023-03-31T08:53:18;11.85;;;2.60;;
10761;SDS011;5433;50.862;4.320;2023-03-31T08:55:47;17.38;;;2.88;;
10761;SDS011;5433;50.862;4.320;2023-03-31T09:00:45;15.43;;;3.28;;
10761;SDS011;5433;50.862;4.320;2023-03-31T09:03:17;11.98;;;2.85;;
10761;SDS011;5433;50.862;4.320;2023-03-31T09:08:38;13.10;;;3.60;;
10761;SDS011;5433;50.862;4.320;2023-03-31T09:16:53;16.48;;;3.58;;
10761;SDS011;5433;50.862;4.320;2023-03-31T09:19:20;14.73;;;4.05;;
10761;SDS011;5433;50.862;4.320;2023-03-31T09:21:50;14.60;;;4.30;;
10761;SDS011;5433;50.862;4.320;2023-03-31T09:24:28;12.40;;;3.60;;
10761;SDS011;5433;50.862;4.320;2023-03-31T09:26:59;18.83;;;3.67;;
10761;SDS011;5433;50.862;4.320;2023-03-31T09:29:30;16.13;;;3.45;;
10761;SDS011;5433;50.862;4.320;2023-03-31T09:32:07;13.35;;;3.17;;
10761;SDS011;5433;50.862;4.320;2023-03-31T09:34:38;18.20;;;3.60;;
10761;SDS011;5433;50.862;4.320;2023-03-31T09:37:05;13.68;;;3.50;;
10761;SDS011;5433;50.862;4.320;2023-03-31T09:39:31;15.40;;;3.95;;
10761;SDS011;5433;50.862;4.320;2023-03-31T09:41:57;15.88;;;3.80;;
10761;SDS011;5433;50.862;4.320;2023-03-31T09:44:25;17.90;;;3.90;;
10761;SDS011;5433;50.862;4.320;2023-03-31T09:46:52;13.88;;;3.30;;
10761;SDS011;5433;50.862;4.320;2023-03-31T09:49:20;14.30;;;3.90;;
10761;SDS011;5433;50.862;4.320;2023-03-31T09:51:47;17.00;;;4.07;;
10761;SDS011;5433;50.862;4.320;2023-03-31T09:56:47;14.63;;;3.35;;
10761;SDS011;5433;50.862;4.320;2023-03-31T09:59:37;15.15;;;3.80;;
10761;SDS011;5433;50.862;4.320;2023-03-31T10:02:03;15.52;;;3.90;;
10761;SDS011;5433;50.862;4.320;2023-03-31T10:04:33;16.17;;;3.92;;
10761;SDS011;5433;50.862;4.320;2023-03-31T10:06:59;17.65;;;4.00;;
10761;SDS011;5433;50.862;4.320;2023-03-31T10:09:27;17.58;;;4.00;;
10761;SDS011;5433;50.862;4.320;2023-03-31T10:12:36;15.90;;;3.92;;
10761;SDS011;5433;50.862;4.320;2023-03-31T10:14:47;19.27;;;4.00;;
10761;SDS011;5433;50.862;4.320;2023-03-31T10:17:15;17.33;;;3.85;;
10761;SDS011;5433;50.862;4.320;2023-03-31T10:19:51;16.35;;;3.67;;
10761;SDS011;5433;50.862;4.320;2023-03-31T10:24:48;16.17;;;3.60;;
10761;SDS011;5433;50.862;4.320;2023-03-31T10:29:43;15.73;;;3.65;;
10761;SDS011;5433;50.862;4.320;2023-03-31T10:32:25;14.38;;;3.80;;
10761;SDS011;5433;50.862;4.320;2023-03-31T10:34:53;15.32;;;3.72;;
10761;SDS011;5433;50.862;4.320;2023-03-31T10:37:21;12.68;;;3.80;;
10761;SDS011;5433;50.862;4.320;2023-03-31T10:39:55;14.85;;;3.90;;
10761;SDS011;5433;50.862;4.320;2023-03-31T10:42:21;13.65;;;2.90;;
10761;SDS011;5433;50.862;4.320;2023-03-31T10:44:48;19.27;;;3.78;;
10761;SDS011;5433;50.862;4.320;2023-03-31T10:49:41;18.88;;;3.85;;
10761;SDS011;5433;50.862;4.320;2023-03-31T10:52:18;16.60;;;3.15;;
10761;SDS011;5433;50.862;4.320;2023-03-31T10:54:48;15.55;;;3.17;;
10761;SDS011;5433;50.862;4.320;2023-03-31T10:57:14;12.60;;;2.63;;
10761;SDS011;5433;50.862;4.320;2023-03-31T11:05:04;8.68;;;2.53;;
10761;SDS011;5433;50.862;4.320;2023-03-31T11:15:21;9.68;;;2.50;;
10761;SDS011;5433;50.862;4.320;2023-03-31T11:28:09;14.18;;;2.35;;
10761;SDS011;5433;50.862;4.320;2023-03-31T11:33:36;10.65;;;2.25;;
10761;SDS011;5433;50.862;4.320;2023-03-31T11:38:47;11.77;;;2.10;;
10761;SDS011;5433;50.862;4.320;2023-03-31T11:43:57;8.93;;;2.10;;
10761;SDS011;5433;50.862;4.320;2023-03-31T11:46:42;9.07;;;2.13;;
10761;SDS011;5433;50.862;4.320;2023-03-31T11:54:24;10.35;;;2.28;;
10761;SDS011;5433;50.862;4.320;2023-03-31T11:56:52;11.15;;;2.38;;
10761;SDS011;5433;50.862;4.320;2023-03-31T11:59:20;9.63;;;2.08;;
10761;SDS011;5433;50.862;4.320;2023-03-31T12:01:49;11.07;;;2.45;;
10761;SDS011;5433;50.862;4.320;2023-03-31T12:07:03;10.48;;;2.28;;
10761;SDS011;5433;50.862;4.320;2023-03-31T12:09:47;9.40;;;2.08;;
10761;SDS011;5433;50.862;4.320;2023-03-31T12:12:21;11.18;;;2.33;;
10761;SDS011;5433;50.862;4.320;2023-03-31T12:14:53;10.65;;;2.30;;
10761;SDS011;5433;50.862;4.320;2023-03-31T12:17:26;11.43;;;2.50;;
10761;SDS011;5433;50.862;4.320;2023-03-31T12:19:56;11.10;;;2.05;;
10761;SDS011;5433;50.862;4.320;2023-03-31T12:22:25;9.57;;;2.42;;
10761;SDS011;5433;50.862;4.320;2023-03-31T12:24:52;10.13;;;1.98;;
10761;SDS011;5433;50.862;4.320;2023-03-31T12:27:29;15.60;;;2.85;;
10761;SDS011;5433;50.862;4.320;2023-03-31T12:30:02;10.80;;;2.30;;
10761;SDS011;5433;50.862;4.320;2023-03-31T12:32:30;9.07;;;2.05;;
10761;SDS011;5433;50.862;4.320;2023-03-31T12:45:04;6.03;;;1.67;;
10761;SDS011;5433;50.862;4.320;2023-03-31T12:47:40;5.45;;;1.48;;
10761;SDS011;5433;50.862;4.320;2023-03-31T13:03:46;3.40;;;1.10;;
10761;SDS011;5433;50.862;4.320;2023-03-31T13:11:17;5.45;;;0.88;;
10761;SDS011;5433;50.862;4.320;2023-03-31T13:13:58;2.97;;;0.75;;
10761;SDS011;5433;50.862;4.320;2023-03-31T13:16:24;2.03;;;0.85;;
10761;SDS011;5433;50.862;4.320;2023-03-31T13:18:52;1.88;;;0.70;;
10761;SDS011;5433;50.862;4.320;2023-03-31T13:21:18;1.90;;;0.65;;
10761;SDS011;5433;50.862;4.320;2023-03-31T13:23:45;1.40;;;0.55;;
10761;SDS011;5433;50.862;4.320;2023-03-31T13:26:57;2.38;;;0.73;;
10761;SDS011;5433;50.862;4.320;2023-03-31T13:34:20;2.45;;;0.60;;
10761;SDS011;5433;50.862;4.320;2023-03-31T13:50:00;1.75;;;0.60;;
10761;SDS011;5433;50.862;4.320;2023-03-31T13:57:55;1.13;;;0.50;;
10761;SDS011;5433;50.862;4.320;2023-03-31T14:00:46;0.95;;;0.50;;
10761;SDS011;5433;50.862;4.320;2023-03-31T14:06:21;1.45;;;0.60;;
10761;SDS011;5433;50.862;4.320;2023-03-31T14:11:25;2.08;;;0.75;;
10761;SDS011;5433;50.862;4.320;2023-03-31T14:16:37;2.33;;;0.60;;
10761;SDS011;5433;50.862;4.320;2023-03-31T14:21:42;1.20;;;0.40;;
10761;SDS011;5433;50.862;4.320;2023-03-31T14:27:05;1.90;;;0.60;;
10761;SDS011;5433;50.862;4.320;2023-03-31T14:29:45;1.25;;;0.55;;
10761;SDS011;5433;50.862;4.320;2023-03-31T14:32:24;0.60;;;0.40;;
10761;SDS011;5433;50.862;4.320;2023-03-31T14:37:25;1.10;;;0.50;;
10761;SDS011;5433;50.862;4.320;2023-03-31T14:39:52;0.93;;;0.50;;
10761;SDS011;5433;50.862;4.320;2023-03-31T14:42:28;0.60;;;0.60;;
10761;SDS011;5433;50.862;4.320;2023-03-31T14:45:01;2.40;;;0.65;;
10761;SDS011;5433;50.862;4.320;2023-03-31T14:47:27;1.67;;;0.70;;
10761;SDS011;5433;50.862;4.320;2023-03-31T14:50:00;2.03;;;0.50;;
10761;SDS011;5433;50.862;4.320;2023-03-31T14:52:28;0.85;;;0.60;;
10761;SDS011;5433;50.862;4.320;2023-03-31T14:54:55;2.95;;;0.90;;
10761;SDS011;5433;50.862;4.320;2023-03-31T14:57:24;1.45;;;0.60;;
10761;SDS011;5433;50.862;4.320;2023-03-31T14:59:51;2.28;;;0.55;;
10761;SDS011;5433;50.862;4.320;2023-03-31T15:02:19;1.83;;;0.80;;
10761;SDS011;5433;50.862;4.320;2023-03-31T15:04:48;1.17;;;0.50;;
10761;SDS011;5433;50.862;4.320;2023-03-31T15:07:15;1.70;;;0.60;;
10761;SDS011;5433;50.862;4.320;2023-03-31T15:09:43;2.42;;;0.60;;
10761;SDS011;5433;50.862;4.320;2023-03-31T15:12:13;1.52;;;0.73;;
10761;SDS011;5433;50.862;4.320;2023-03-31T15:14:50;1.63;;;0.60;;
10761;SDS011;5433;50.862;4.320;2023-03-31T15:17:17;1.60;;;0.80;;
10761;SDS011;5433;50.862;4.320;2023-03-31T15:19:44;3.60;;;1.00;;
10761;SDS011;5433;50.862;4.320;2023-03-31T15:22:11;1.75;;;0.88;;
10761;SDS011;5433;50.862;4.320;2023-03-31T15:24:40;3.45;;;1.00;;
10761;SDS011;5433;50.862;4.320;2023-03-31T15:27:07;3.58;;;0.85;;
10761;SDS011;5433;50.862;4.320;2023-03-31T15:32:03;1.77;;;0.70;;
10761;SDS011;5433;50.862;4.320;2023-03-31T15:34:34;3.28;;;0.77;;
10761;SDS011;5433;50.862;4.320;2023-03-31T15:37:00;1.98;;;0.90;;
10761;SDS011;5433;50.862;4.320;2023-03-31T15:39:28;2.67;;;0.80;;
10761;SDS011;5433;50.862;4.320;2023-03-31T15:41:56;2.97;;;1.00;;
10761;SDS011;5433;50.862;4.320;2023-03-31T15:47:22;4.13;;;0.98;;
10761;SDS011;5433;50.862;4.320;2023-03-31T15:50:31;2.70;;;0.80;;
10761;SDS011;5433;50.862;4.320;2023-03-31T15:52:38;2.67;;;1.10;;
10761;SDS011;5433;50.862;4.320;2023-03-31T15:55:43;2.92;;;0.82;;
10761;SDS011;5433;50.862;4.320;2023-03-31T15:58:02;4.25;;;1.10;;
10761;SDS011;5433;50.862;4.320;2023-03-31T16:02:55;5.50;;;1.30;;
10761;SDS011;5433;50.862;4.320;2023-03-31T16:05:40;3.80;;;1.10;;
10761;SDS011;5433;50.862;4.320;2023-03-31T16:08:11;3.53;;;1.30;;
10761;SDS011;5433;50.862;4.320;2023-03-31T16:10:38;6.25;;;1.35;;
10761;SDS011;5433;50.862;4.320;2023-03-31T16:13:05;4.47;;;1.35;;
10761;SDS011;5433;50.862;4.320;2023-03-31T16:15:35;6.80;;;1.60;;
10761;SDS011;5433;50.862;4.320;2023-03-31T16:18:04;6.78;;;1.40;;
10761;SDS011;5433;50.862;4.320;2023-03-31T16:20:32;5.65;;;1.77;;
10761;SDS011;5433;50.862;4.320;2023-03-31T16:25:49;3.75;;;1.50;;
10761;SDS011;5433;50.862;4.320;2023-03-31T16:28:16;4.97;;;1.40;;
10761;SDS011;5433;50.862;4.320;2023-03-31T16:30:43;7.88;;;1.85;;
10761;SDS011;5433;50.862;4.320;2023-03-31T16:33:10;6.50;;;1.70;;
10761;SDS011;5433;50.862;4.320;2023-03-31T16:35:38;8.38;;;1.83;;
10761;SDS011;5433;50.862;4.320;2023-03-31T16:38:05;5.13;;;1.50;;
10761;SDS011;5433;50.862;4.320;2023-03-31T16:40:41;6.60;;;1.65;;
10761;SDS011;5433;50.862;4.320;2023-03-31T16:45:37;6.60;;;1.80;;
10761;SDS011;5433;50.862;4.320;2023-03-31T16:48:03;5.57;;;1.60;;
10761;SDS011;5433;50.862;4.320;2023-03-31T16:50:29;6.68;;;1.60;;
10761;SDS011;5433;50.862;4.320;2023-03-31T16:52:56;8.10;;;1.65;;
10761;SDS011;5433;50.862;4.320;2023-03-31T16:55:22;8.23;;;1.70;;
10761;SDS011;5433;50.862;4.320;2023-03-31T16:57:48;6.93;;;1.73;;
10761;SDS011;5433;50.862;4.320;2023-03-31T17:00:15;7.88;;;1.50;;
10761;SDS011;5433;50.862;4.320;2023-03-31T17:02:41;7.47;;;1.73;;
10761;SDS011;5433;50.862;4.320;2023-03-31T17:05:07;6.32;;;1.67;;
10761;SDS011;5433;50.862;4.320;2023-03-31T17:07:33;6.75;;;1.60;;
10761;SDS011;5433;50.862;4.320;2023-03-31T17:09:59;6.53;;;1.73;;
10761;SDS011;5433;50.862;4.320;2023-03-31T17:12:25;6.68;;;1.55;;
10761;SDS011;5433;50.862;4.320;2023-03-31T17:14:51;5.65;;;1.38;;
10761;SDS011;5433;50.862;4.320;2023-03-31T17:17:17;6.90;;;1.70;;
10761;SDS011;5433;50.862;4.320;2023-03-31T17:19:43;6.45;;;1.77;;
10761;SDS011;5433;50.862;4.320;2023-03-31T17:22:10;7.22;;;1.85;;
10761;SDS011;5433;50.862;4.320;2023-03-31T17:24:36;7.72;;;1.88;;
10761;SDS011;5433;50.862;4.320;2023-03-31T17:27:02;6.95;;;1.60;;
10761;SDS011;5433;50.862;4.320;2023-03-31T17:29:28;5.78;;;1.80;;
10761;SDS011;5433;50.862;4.320;2023-03-31T17:31:54;4.07;;;1.58;;
10761;SDS011;5433;50.862;4.320;2023-03-31T17:34:21;7.22;;;2.20;;
10761;SDS011;5433;50.862;4.320;2023-03-31T17:36:47;7.18;;;1.73;;
10761;SDS011;5433;50.862;4.320;2023-03-31T17:39:14;6.03;;;1.50;;
10761;SDS011;5433;50.862;4.320;2023-03-31T17:41:40;7.18;;;2.20;;
10761;SDS011;5433;50.862;4.320;2023-03-31T17:44:06;9.15;;;2.45;;
10761;SDS011;5433;50.862;4.320;2023-03-31T17:46:33;10.07;;;2.67;;
10761;SDS011;5433;50.862;4.320;2023-03-31T17:48:59;8.55;;;2.40;;
10761;SDS011;5433;50.862;4.320;2023-03-31T17:51:25;11.30;;;2.33;;
10761;SDS011;5433;50.862;4.320;2023-03-31T17:53:52;8.93;;;2.67;;
10761;SDS011;5433;50.862;4.320;2023-03-31T17:56:18;12.70;;;2.85;;
10761;SDS011;5433;50.862;4.320;2023-03-31T17:58:44;11.85;;;2.70;;